sensor_id;sensor_type;location;lat;lon;timestamp;temperature;humidity
22645;DHT22;11489;50.834;6.752;2023-06-24T00:01:28;16.70;90.40
22645;DHT22;11489;50.834;6.752;2023-06-24T00:03:54;16.70;90.40
22645;DHT22;11489;50.834;6.752;2023-06-24T00:06:20;16.60;90.50
22645;DHT22;11489;50.834;6.752;2023-06-24T00:08:49;16.60;90.50
22645;DHT22;11489;50.834;6.752;2023-06-24T00:11:15;16.60;90.50
22645;DHT22;11489;50.834;6.752;2023-06-24T00:13:42;16.60;90.50
22645;DHT22;11489;50.834;6.752;2023-06-24T00:16:09;16.60;90.50
22645;DHT22;11489;50.834;6.752;2023-06-24T00:18:36;16.50;90.60
22645;DHT22;11489;50.834;6.752;2023-06-24T00:21:02;16.50;90.60
22645;DHT22;11489;50.834;6.752;2023-06-24T00:23:28;16.50;90.60
22645;DHT22;11489;50.834;6.752;2023-06-24T00:25:56;16.50;90.70
22645;DHT22;11489;50.834;6.752;2023-06-24T00:28:22;16.40;90.70
22645;DHT22;11489;50.834;6.752;2023-06-24T00:30:49;16.40;90.80
22645;DHT22;11489;50.834;6.752;2023-06-24T00:33:15;16.30;90.80
22645;DHT22;11489;50.834;6.752;2023-06-24T00:35:42;16.30;90.80
22645;DHT22;11489;50.834;6.752;2023-06-24T00:38:08;16.30;90.90
22645;DHT22;11489;50.834;6.752;2023-06-24T00:40:34;16.20;90.90
22645;DHT22;11489;50.834;6.752;2023-06-24T00:43:00;16.20;91.00
22645;DHT22;11489;50.834;6.752;2023-06-24T00:45:27;16.20;91.00
22645;DHT22;11489;50.834;6.752;2023-06-24T00:47:55;16.20;91.10
22645;DHT22;11489;50.834;6.752;2023-06-24T00:50:21;16.10;91.10
22645;DHT22;11489;50.834;6.752;2023-06-24T00:52:47;16.10;91.10
22645;DHT22;11489;50.834;6.752;2023-06-24T00:55:15;16.10;91.20
22645;DHT22;11489;50.834;6.752;2023-06-24T00:57:43;16.00;91.20
22645;DHT22;11489;50.834;6.752;2023-06-24T01:00:09;16.00;91.30
22645;DHT22;11489;50.834;6.752;2023-06-24T01:02:39;16.00;91.30
22645;DHT22;11489;50.834;6.752;2023-06-24T01:05:08;15.90;91.40
22645;DHT22;11489;50.834;6.752;2023-06-24T01:07:35;15.90;91.40
22645;DHT22;11489;50.834;6.752;2023-06-24T01:10:03;15.90;91.40
22645;DHT22;11489;50.834;6.752;2023-06-24T01:12:33;15.90;91.50
22645;DHT22;11489;50.834;6.752;2023-06-24T01:14:58;15.90;91.50
22645;DHT22;11489;50.834;6.752;2023-06-24T01:17:33;15.80;91.50
22645;DHT22;11489;50.834;6.752;2023-06-24T01:26:52;15.80;91.70
22645;DHT22;11489;50.834;6.752;2023-06-24T01:29:42;15.70;91.70
22645;DHT22;11489;50.834;6.752;2023-06-24T01:32:41;15.70;91.80
22645;DHT22;11489;50.834;6.752;2023-06-24T01:35:15;15.70;91.80
22645;DHT22;11489;50.834;6.752;2023-06-24T01:37:44;15.60;92.00
22645;DHT22;11489;50.834;6.752;2023-06-24T01:40:32;15.60;91.70
22645;DHT22;11489;50.834;6.752;2023-06-24T01:43:01;15.60;91.90
22645;DHT22;11489;50.834;6.752;2023-06-24T01:45:33;15.50;91.80
22645;DHT22;11489;50.834;6.752;2023-06-24T01:48:06;15.50;91.90
22645;DHT22;11489;50.834;6.752;2023-06-24T01:50:33;15.50;91.90
22645;DHT22;11489;50.834;6.752;2023-06-24T01:53:04;15.50;91.90
22645;DHT22;11489;50.834;6.752;2023-06-24T01:55:33;15.50;91.90
22645;DHT22;11489;50.834;6.752;2023-06-24T01:57:59;15.50;91.90
22645;DHT22;11489;50.834;6.752;2023-06-24T02:00:27;15.40;91.90
22645;DHT22;11489;50.834;6.752;2023-06-24T02:02:54;15.40;92.00
22645;DHT22;11489;50.834;6.752;2023-06-24T02:05:20;15.40;92.00
22645;DHT22;11489;50.834;6.752;2023-06-24T02:07:48;15.40;92.10
22645;DHT22;11489;50.834;6.752;2023-06-24T02:10:15;15.40;92.10
22645;DHT22;11489;50.834;6.752;2023-06-24T02:12:42;15.40;92.10
22645;DHT22;11489;50.834;6.752;2023-06-24T02:15:09;15.30;92.10
22645;DHT22;11489;50.834;6.752;2023-06-24T02:17:37;15.30;92.10
22645;DHT22;11489;50.834;6.752;2023-06-24T02:20:06;15.30;92.10
22645;DHT22;11489;50.834;6.752;2023-06-24T02:22:35;15.30;92.10
22645;DHT22;11489;50.834;6.752;2023-06-24T02:25:02;15.30;92.30
22645;DHT22;11489;50.834;6.752;2023-06-24T02:27:28;15.20;92.10
22645;DHT22;11489;50.834;6.752;2023-06-24T02:29:55;15.20;92.20
22645;DHT22;11489;50.834;6.752;2023-06-24T02:32:22;15.20;92.20
22645;DHT22;11489;50.834;6.752;2023-06-24T02:34:47;15.20;92.20
22645;DHT22;11489;50.834;6.752;2023-06-24T02:37:13;15.20;92.30
22645;DHT22;11489;50.834;6.752;2023-06-24T02:39:39;15.20;92.30
22645;DHT22;11489;50.834;6.752;2023-06-24T02:42:10;15.10;92.30
22645;DHT22;11489;50.834;6.752;2023-06-24T02:44:36;15.10;92.30
22645;DHT22;11489;50.834;6.752;2023-06-24T02:47:02;15.10;92.30
22645;DHT22;11489;50.834;6.752;2023-06-24T02:49:28;15.10;92.40
22645;DHT22;11489;50.834;6.752;2023-06-24T02:51:55;15.10;92.30
22645;DHT22;11489;50.834;6.752;2023-06-24T02:54:20;15.10;92.40
22645;DHT22;11489;50.834;6.752;2023-06-24T02:56:46;15.10;92.40
22645;DHT22;11489;50.834;6.752;2023-06-24T02:59:13;15.10;92.40
22645;DHT22;11489;50.834;6.752;2023-06-24T03:01:39;15.00;92.40
22645;DHT22;11489;50.834;6.752;2023-06-24T03:04:10;15.00;92.40
22645;DHT22;11489;50.834;6.752;2023-06-24T03:06:36;15.00;92.40
22645;DHT22;11489;50.834;6.752;2023-06-24T03:09:02;15.00;92.40
22645;DHT22;11489;50.834;6.752;2023-06-24T03:11:29;15.00;92.50
22645;DHT22;11489;50.834;6.752;2023-06-24T03:13:54;14.90;92.40
22645;DHT22;11489;50.834;6.752;2023-06-24T03:16:20;15.00;92.50
22645;DHT22;11489;50.834;6.752;2023-06-24T03:18:46;14.90;92.40
22645;DHT22;11489;50.834;6.752;2023-06-24T03:21:11;14.90;92.40
22645;DHT22;11489;50.834;6.752;2023-06-24T03:23:37;14.90;92.40
22645;DHT22;11489;50.834;6.752;2023-06-24T03:26:03;14.90;92.50
22645;DHT22;11489;50.834;6.752;2023-06-24T03:28:32;14.90;92.60
22645;DHT22;11489;50.834;6.752;2023-06-24T03:30:58;14.90;92.70
22645;DHT22;11489;50.834;6.752;2023-06-24T03:33:24;14.90;92.70
22645;DHT22;11489;50.834;6.752;2023-06-24T03:35:50;14.90;92.80
22645;DHT22;11489;50.834;6.752;2023-06-24T03:38:16;14.90;92.80
22645;DHT22;11489;50.834;6.752;2023-06-24T03:40:42;14.90;92.80
22645;DHT22;11489;50.834;6.752;2023-06-24T03:43:09;14.90;92.90
22645;DHT22;11489;50.834;6.752;2023-06-24T03:45:35;15.00;93.00
22645;DHT22;11489;50.834;6.752;2023-06-24T03:48:01;15.00;93.00
22645;DHT22;11489;50.834;6.752;2023-06-24T03:50:26;15.00;93.10
22645;DHT22;11489;50.834;6.752;2023-06-24T03:52:52;15.10;93.20
22645;DHT22;11489;50.834;6.752;2023-06-24T03:55:18;15.20;93.30
22645;DHT22;11489;50.834;6.752;2023-06-24T03:57:43;15.20;93.40
22645;DHT22;11489;50.834;6.752;2023-06-24T04:00:09;15.30;93.50
22645;DHT22;11489;50.834;6.752;2023-06-24T04:02:40;15.40;93.60
22645;DHT22;11489;50.834;6.752;2023-06-24T04:05:08;15.60;93.70
22645;DHT22;11489;50.834;6.752;2023-06-24T04:07:34;15.70;93.70
22645;DHT22;11489;50.834;6.752;2023-06-24T04:10:02;15.90;93.80
22645;DHT22;11489;50.834;6.752;2023-06-24T04:12:29;16.00;93.80
22645;DHT22;11489;50.834;6.752;2023-06-24T04:14:55;16.20;93.80
22645;DHT22;11489;50.834;6.752;2023-06-24T04:17:21;16.40;93.80
22645;DHT22;11489;50.834;6.752;2023-06-24T04:19:46;16.50;93.80
22645;DHT22;11489;50.834;6.752;2023-06-24T04:22:12;16.80;93.90
22645;DHT22;11489;50.834;6.752;2023-06-24T04:24:38;17.00;93.90
22645;DHT22;11489;50.834;6.752;2023-06-24T04:27:05;17.20;94.00
22645;DHT22;11489;50.834;6.752;2023-06-24T04:29:31;17.40;94.00
22645;DHT22;11489;50.834;6.752;2023-06-24T04:31:56;17.70;94.00
22645;DHT22;11489;50.834;6.752;2023-06-24T04:34:22;18.00;93.90
22645;DHT22;11489;50.834;6.752;2023-06-24T04:36:47;18.20;93.80
22645;DHT22;11489;50.834;6.752;2023-06-24T04:39:13;18.50;93.60
22645;DHT22;11489;50.834;6.752;2023-06-24T04:41:39;18.70;93.40
22645;DHT22;11489;50.834;6.752;2023-06-24T04:44:04;19.00;93.00
22645;DHT22;11489;50.834;6.752;2023-06-24T04:46:31;19.20;92.60
22645;DHT22;11489;50.834;6.752;2023-06-24T04:48:58;19.30;92.20
22645;DHT22;11489;50.834;6.752;2023-06-24T04:51:23;19.40;91.90
22645;DHT22;11489;50.834;6.752;2023-06-24T04:53:49;19.50;91.50
22645;DHT22;11489;50.834;6.752;2023-06-24T04:56:14;19.50;91.20
22645;DHT22;11489;50.834;6.752;2023-06-24T04:58:40;19.50;91.10
22645;DHT22;11489;50.834;6.752;2023-06-24T05:01:06;19.50;90.90
22645;DHT22;11489;50.834;6.752;2023-06-24T05:03:31;19.50;90.70
22645;DHT22;11489;50.834;6.752;2023-06-24T05:05:57;19.40;90.50
22645;DHT22;11489;50.834;6.752;2023-06-24T05:08:23;19.40;90.60
22645;DHT22;11489;50.834;6.752;2023-06-24T05:10:48;19.30;90.60
22645;DHT22;11489;50.834;6.752;2023-06-24T05:13:14;19.30;91.00
22645;DHT22;11489;50.834;6.752;2023-06-24T05:15:40;19.20;90.70
22645;DHT22;11489;50.834;6.752;2023-06-24T05:18:05;19.20;90.80
22645;DHT22;11489;50.834;6.752;2023-06-24T05:20:31;19.20;90.80
22645;DHT22;11489;50.834;6.752;2023-06-24T05:22:57;19.20;90.90
22645;DHT22;11489;50.834;6.752;2023-06-24T05:25:22;19.10;90.90
22645;DHT22;11489;50.834;6.752;2023-06-24T05:27:48;19.20;90.90
22645;DHT22;11489;50.834;6.752;2023-06-24T05:30:14;19.20;90.90
22645;DHT22;11489;50.834;6.752;2023-06-24T05:32:40;19.20;91.00
22645;DHT22;11489;50.834;6.752;2023-06-24T05:35:06;19.20;91.00
22645;DHT22;11489;50.834;6.752;2023-06-24T05:37:32;19.30;91.00
22645;DHT22;11489;50.834;6.752;2023-06-24T05:39:58;19.30;91.00
22645;DHT22;11489;50.834;6.752;2023-06-24T05:42:27;19.30;91.00
22645;DHT22;11489;50.834;6.752;2023-06-24T05:44:53;19.30;91.00
22645;DHT22;11489;50.834;6.752;2023-06-24T05:47:19;19.40;91.00
22645;DHT22;11489;50.834;6.752;2023-06-24T05:49:45;19.40;91.00
22645;DHT22;11489;50.834;6.752;2023-06-24T05:52:11;19.50;91.10
22645;DHT22;11489;50.834;6.752;2023-06-24T05:54:37;19.60;91.10
22645;DHT22;11489;50.834;6.752;2023-06-24T05:57:03;19.60;91.10
22645;DHT22;11489;50.834;6.752;2023-06-24T05:59:32;19.70;91.30
22645;DHT22;11489;50.834;6.752;2023-06-24T06:01:58;19.80;91.20
22645;DHT22;11489;50.834;6.752;2023-06-24T06:04:24;19.90;91.10
22645;DHT22;11489;50.834;6.752;2023-06-24T06:06:49;20.00;91.10
22645;DHT22;11489;50.834;6.752;2023-06-24T06:11:43;20.20;91.10
22645;DHT22;11489;50.834;6.752;2023-06-24T06:14:09;20.30;91.10
22645;DHT22;11489;50.834;6.752;2023-06-24T06:16:34;20.40;91.10
22645;DHT22;11489;50.834;6.752;2023-06-24T06:19:00;20.60;91.00
22645;DHT22;11489;50.834;6.752;2023-06-24T06:21:25;20.60;90.90
22645;DHT22;11489;50.834;6.752;2023-06-24T06:23:51;20.80;90.90
22645;DHT22;11489;50.834;6.752;2023-06-24T06:26:17;20.90;90.80
22645;DHT22;11489;50.834;6.752;2023-06-24T06:28:42;21.00;90.80
22645;DHT22;11489;50.834;6.752;2023-06-24T06:31:08;21.10;90.70
22645;DHT22;11489;50.834;6.752;2023-06-24T06:33:34;21.20;90.70
22645;DHT22;11489;50.834;6.752;2023-06-24T06:35:59;21.40;90.60
22645;DHT22;11489;50.834;6.752;2023-06-24T06:38:25;21.50;90.50
22645;DHT22;11489;50.834;6.752;2023-06-24T06:40:51;21.60;90.40
22645;DHT22;11489;50.834;6.752;2023-06-24T06:43:16;21.70;90.20
22645;DHT22;11489;50.834;6.752;2023-06-24T06:45:42;21.90;90.20
22645;DHT22;11489;50.834;6.752;2023-06-24T06:48:08;22.00;90.10
22645;DHT22;11489;50.834;6.752;2023-06-24T06:50:34;22.10;90.00
22645;DHT22;11489;50.834;6.752;2023-06-24T06:53:00;22.20;89.60
22645;DHT22;11489;50.834;6.752;2023-06-24T06:55:26;22.30;89.40
22645;DHT22;11489;50.834;6.752;2023-06-24T06:57:52;22.40;89.00
22645;DHT22;11489;50.834;6.752;2023-06-24T07:00:18;22.50;88.30
22645;DHT22;11489;50.834;6.752;2023-06-24T07:02:44;22.60;87.80
22645;DHT22;11489;50.834;6.752;2023-06-24T07:05:10;22.60;87.40
22645;DHT22;11489;50.834;6.752;2023-06-24T07:07:39;22.70;86.90
22645;DHT22;11489;50.834;6.752;2023-06-24T07:10:06;22.70;85.80
22645;DHT22;11489;50.834;6.752;2023-06-24T07:12:31;22.80;86.20
22645;DHT22;11489;50.834;6.752;2023-06-24T07:14:57;22.90;86.10
22645;DHT22;11489;50.834;6.752;2023-06-24T07:17:23;23.00;85.80
22645;DHT22;11489;50.834;6.752;2023-06-24T07:19:48;23.10;85.60
22645;DHT22;11489;50.834;6.752;2023-06-24T07:22:14;23.10;85.10
22645;DHT22;11489;50.834;6.752;2023-06-24T07:24:41;23.20;84.80
22645;DHT22;11489;50.834;6.752;2023-06-24T07:27:07;23.30;84.30
22645;DHT22;11489;50.834;6.752;2023-06-24T07:29:33;23.30;84.00
22645;DHT22;11489;50.834;6.752;2023-06-24T07:31:58;23.40;83.70
22645;DHT22;11489;50.834;6.752;2023-06-24T07:34:24;23.50;83.30
22645;DHT22;11489;50.834;6.752;2023-06-24T07:36:50;23.50;83.40
22645;DHT22;11489;50.834;6.752;2023-06-24T07:39:16;23.70;82.70
22645;DHT22;11489;50.834;6.752;2023-06-24T07:41:42;23.70;82.50
22645;DHT22;11489;50.834;6.752;2023-06-24T07:44:08;23.80;83.30
22645;DHT22;11489;50.834;6.752;2023-06-24T07:46:34;24.00;83.70
22645;DHT22;11489;50.834;6.752;2023-06-24T07:49:00;24.20;83.80
22645;DHT22;11489;50.834;6.752;2023-06-24T07:51:26;24.50;83.50
22645;DHT22;11489;50.834;6.752;2023-06-24T07:53:52;24.70;83.20
22645;DHT22;11489;50.834;6.752;2023-06-24T07:56:18;24.90;83.10
22645;DHT22;11489;50.834;6.752;2023-06-24T07:58:43;25.10;82.70
22645;DHT22;11489;50.834;6.752;2023-06-24T08:01:09;25.40;82.20
22645;DHT22;11489;50.834;6.752;2023-06-24T08:03:35;25.60;81.60
22645;DHT22;11489;50.834;6.752;2023-06-24T08:06:02;25.70;80.70
22645;DHT22;11489;50.834;6.752;2023-06-24T08:08:28;25.80;79.30
22645;DHT22;11489;50.834;6.752;2023-06-24T08:10:54;25.90;77.50
22645;DHT22;11489;50.834;6.752;2023-06-24T08:13:20;25.90;77.60
22645;DHT22;11489;50.834;6.752;2023-06-24T08:15:45;25.90;78.10
22645;DHT22;11489;50.834;6.752;2023-06-24T08:18:11;25.90;77.30
22645;DHT22;11489;50.834;6.752;2023-06-24T08:20:37;26.00;77.20
22645;DHT22;11489;50.834;6.752;2023-06-24T08:23:02;26.10;77.50
22645;DHT22;11489;50.834;6.752;2023-06-24T08:25:28;26.20;77.20
22645;DHT22;11489;50.834;6.752;2023-06-24T08:27:55;26.20;76.60
22645;DHT22;11489;50.834;6.752;2023-06-24T08:30:20;26.30;76.60
22645;DHT22;11489;50.834;6.752;2023-06-24T08:32:46;26.40;75.80
22645;DHT22;11489;50.834;6.752;2023-06-24T08:35:12;26.40;74.90
22645;DHT22;11489;50.834;6.752;2023-06-24T08:37:40;26.50;75.30
22645;DHT22;11489;50.834;6.752;2023-06-24T08:40:52;26.50;74.60
22645;DHT22;11489;50.834;6.752;2023-06-24T08:43:21;26.70;72.00
22645;DHT22;11489;50.834;6.752;2023-06-24T08:45:55;26.90;75.50
22645;DHT22;11489;50.834;6.752;2023-06-24T08:48:26;27.00;74.70
22645;DHT22;11489;50.834;6.752;2023-06-24T08:50:56;27.20;75.00
22645;DHT22;11489;50.834;6.752;2023-06-24T08:53:27;27.40;74.10
22645;DHT22;11489;50.834;6.752;2023-06-24T08:55:56;27.60;73.80
22645;DHT22;11489;50.834;6.752;2023-06-24T08:58:22;27.70;74.20
22645;DHT22;11489;50.834;6.752;2023-06-24T09:00:48;27.90;73.90
22645;DHT22;11489;50.834;6.752;2023-06-24T09:03:14;28.00;73.70
22645;DHT22;11489;50.834;6.752;2023-06-24T09:05:45;28.20;73.50
22645;DHT22;11489;50.834;6.752;2023-06-24T09:08:24;28.30;73.10
22645;DHT22;11489;50.834;6.752;2023-06-24T09:11:01;28.60;73.20
22645;DHT22;11489;50.834;6.752;2023-06-24T09:13:38;28.80;73.10
22645;DHT22;11489;50.834;6.752;2023-06-24T09:16:25;29.10;70.10
22645;DHT22;11489;50.834;6.752;2023-06-24T09:18:53;29.30;72.00
22645;DHT22;11489;50.834;6.752;2023-06-24T09:21:28;29.50;71.20
22645;DHT22;11489;50.834;6.752;2023-06-24T09:23:58;29.70;67.30
22645;DHT22;11489;50.834;6.752;2023-06-24T09:26:25;29.90;69.80
22645;DHT22;11489;50.834;6.752;2023-06-24T09:28:51;30.10;70.00
22645;DHT22;11489;50.834;6.752;2023-06-24T09:31:17;30.20;69.20
22645;DHT22;11489;50.834;6.752;2023-06-24T09:33:43;30.40;68.60
22645;DHT22;11489;50.834;6.752;2023-06-24T09:36:15;30.50;67.90
22645;DHT22;11489;50.834;6.752;2023-06-24T09:38:44;30.70;64.70
22645;DHT22;11489;50.834;6.752;2023-06-24T09:41:10;30.70;65.80
22645;DHT22;11489;50.834;6.752;2023-06-24T09:43:38;30.90;67.20
22645;DHT22;11489;50.834;6.752;2023-06-24T09:46:07;31.00;66.40
22645;DHT22;11489;50.834;6.752;2023-06-24T09:48:33;31.10;64.70
22645;DHT22;11489;50.834;6.752;2023-06-24T09:51:00;31.00;62.60
22645;DHT22;11489;50.834;6.752;2023-06-24T09:53:34;30.90;61.10
22645;DHT22;11489;50.834;6.752;2023-06-24T09:56:03;30.70;59.30
22645;DHT22;11489;50.834;6.752;2023-06-24T09:58:36;30.50;62.20
22645;DHT22;11489;50.834;6.752;2023-06-24T10:01:04;30.40;59.70
22645;DHT22;11489;50.834;6.752;2023-06-24T10:03:33;30.30;62.80
22645;DHT22;11489;50.834;6.752;2023-06-24T10:06:03;30.30;62.40
22645;DHT22;11489;50.834;6.752;2023-06-24T10:08:30;30.30;62.00
22645;DHT22;11489;50.834;6.752;2023-06-24T10:10:56;30.50;63.60
22645;DHT22;11489;50.834;6.752;2023-06-24T10:13:22;30.50;61.50
22645;DHT22;11489;50.834;6.752;2023-06-24T10:15:49;30.50;61.90
22645;DHT22;11489;50.834;6.752;2023-06-24T10:18:34;30.60;62.10
22645;DHT22;11489;50.834;6.752;2023-06-24T10:21:01;30.60;57.90
22645;DHT22;11489;50.834;6.752;2023-06-24T10:23:40;30.50;59.80
22645;DHT22;11489;50.834;6.752;2023-06-24T10:26:11;30.30;56.40
22645;DHT22;11489;50.834;6.752;2023-06-24T10:37:04;30.20;58.20
22645;DHT22;11489;50.834;6.752;2023-06-24T10:39:56;30.30;59.60
22645;DHT22;11489;50.834;6.752;2023-06-24T10:42:41;30.50;61.30
22645;DHT22;11489;50.834;6.752;2023-06-24T10:47:58;30.60;58.90
22645;DHT22;11489;50.834;6.752;2023-06-24T10:50:26;30.60;58.00
22645;DHT22;11489;50.834;6.752;2023-06-24T10:52:52;30.60;59.60
22645;DHT22;11489;50.834;6.752;2023-06-24T10:55:25;30.60;59.90
22645;DHT22;11489;50.834;6.752;2023-06-24T10:57:51;30.70;60.30
22645;DHT22;11489;50.834;6.752;2023-06-24T11:00:17;30.80;60.40
22645;DHT22;11489;50.834;6.752;2023-06-24T11:02:44;30.90;59.90
22645;DHT22;11489;50.834;6.752;2023-06-24T11:05:09;31.00;59.50
22645;DHT22;11489;50.834;6.752;2023-06-24T11:07:37;31.10;59.40
22645;DHT22;11489;50.834;6.752;2023-06-24T11:10:07;31.30;59.00
22645;DHT22;11489;50.834;6.752;2023-06-24T11:12:34;31.40;59.40
22645;DHT22;11489;50.834;6.752;2023-06-24T11:15:05;31.60;59.20
22645;DHT22;11489;50.834;6.752;2023-06-24T11:17:31;31.80;58.00
22645;DHT22;11489;50.834;6.752;2023-06-24T11:19:58;32.00;59.40
22645;DHT22;11489;50.834;6.752;2023-06-24T11:22:25;32.10;57.80
22645;DHT22;11489;50.834;6.752;2023-06-24T11:24:51;32.10;55.60
22645;DHT22;11489;50.834;6.752;2023-06-24T11:27:23;31.90;55.40
22645;DHT22;11489;50.834;6.752;2023-06-24T11:29:48;31.80;56.00
22645;DHT22;11489;50.834;6.752;2023-06-24T11:32:16;31.60;55.70
22645;DHT22;11489;50.834;6.752;2023-06-24T11:34:42;31.60;56.00
22645;DHT22;11489;50.834;6.752;2023-06-24T11:37:15;31.60;56.40
22645;DHT22;11489;50.834;6.752;2023-06-24T11:39:43;31.70;53.80
22645;DHT22;11489;50.834;6.752;2023-06-24T11:42:09;31.70;54.70
22645;DHT22;11489;50.834;6.752;2023-06-24T11:44:42;31.80;55.40
22645;DHT22;11489;50.834;6.752;2023-06-24T11:47:10;31.80;55.30
22645;DHT22;11489;50.834;6.752;2023-06-24T11:49:59;31.90;55.40
22645;DHT22;11489;50.834;6.752;2023-06-24T11:52:40;32.00;52.80
22645;DHT22;11489;50.834;6.752;2023-06-24T11:55:24;32.10;53.60
22645;DHT22;11489;50.834;6.752;2023-06-24T11:58:01;32.30;53.00
22645;DHT22;11489;50.834;6.752;2023-06-24T12:00:38;32.50;53.60
22645;DHT22;11489;50.834;6.752;2023-06-24T12:03:09;32.70;54.20
22645;DHT22;11489;50.834;6.752;2023-06-24T12:05:36;32.70;53.70
22645;DHT22;11489;50.834;6.752;2023-06-24T12:08:07;32.60;53.10
22645;DHT22;11489;50.834;6.752;2023-06-24T12:10:34;32.40;51.20
22645;DHT22;11489;50.834;6.752;2023-06-24T12:13:01;32.20;51.50
22645;DHT22;11489;50.834;6.752;2023-06-24T12:15:27;32.00;52.50
22645;DHT22;11489;50.834;6.752;2023-06-24T12:17:53;32.00;52.90
22645;DHT22;11489;50.834;6.752;2023-06-24T12:20:19;32.00;53.30
22645;DHT22;11489;50.834;6.752;2023-06-24T12:22:46;32.00;52.60
22645;DHT22;11489;50.834;6.752;2023-06-24T12:25:12;32.00;52.70
22645;DHT22;11489;50.834;6.752;2023-06-24T12:27:38;32.10;53.10
22645;DHT22;11489;50.834;6.752;2023-06-24T12:30:06;32.10;52.60
22645;DHT22;11489;50.834;6.752;2023-06-24T12:32:32;32.10;52.50
22645;DHT22;11489;50.834;6.752;2023-06-24T12:34:57;32.00;51.70
22645;DHT22;11489;50.834;6.752;2023-06-24T12:37:23;32.00;51.90
22645;DHT22;11489;50.834;6.752;2023-06-24T12:39:49;32.00;52.40
22645;DHT22;11489;50.834;6.752;2023-06-24T12:42:16;32.00;53.00
22645;DHT22;11489;50.834;6.752;2023-06-24T12:44:42;32.10;53.00
22645;DHT22;11489;50.834;6.752;2023-06-24T12:47:08;32.30;52.90
22645;DHT22;11489;50.834;6.752;2023-06-24T12:49:33;32.50;53.30
22645;DHT22;11489;50.834;6.752;2023-06-24T12:52:01;32.70;53.10
22645;DHT22;11489;50.834;6.752;2023-06-24T12:54:26;32.90;52.50
22645;DHT22;11489;50.834;6.752;2023-06-24T12:56:52;33.00;51.80
22645;DHT22;11489;50.834;6.752;2023-06-24T12:59:18;33.10;51.90
22645;DHT22;11489;50.834;6.752;2023-06-24T13:01:43;33.20;52.00
22645;DHT22;11489;50.834;6.752;2023-06-24T13:04:11;33.20;51.70
22645;DHT22;11489;50.834;6.752;2023-06-24T13:06:36;33.30;51.50
22645;DHT22;11489;50.834;6.752;2023-06-24T13:09:02;33.30;51.20
22645;DHT22;11489;50.834;6.752;2023-06-24T13:11:28;33.30;50.80
22645;DHT22;11489;50.834;6.752;2023-06-24T13:13:54;33.30;50.10
22645;DHT22;11489;50.834;6.752;2023-06-24T13:16:20;33.20;50.10
22645;DHT22;11489;50.834;6.752;2023-06-24T13:18:46;33.20;50.10
22645;DHT22;11489;50.834;6.752;2023-06-24T13:21:12;33.20;50.10
22645;DHT22;11489;50.834;6.752;2023-06-24T13:23:39;33.20;49.60
22645;DHT22;11489;50.834;6.752;2023-06-24T13:26:06;33.10;49.60
22645;DHT22;11489;50.834;6.752;2023-06-24T13:28:32;33.10;49.80
22645;DHT22;11489;50.834;6.752;2023-06-24T13:30:58;33.10;49.40
22645;DHT22;11489;50.834;6.752;2023-06-24T13:33:24;33.00;48.70
22645;DHT22;11489;50.834;6.752;2023-06-24T13:35:51;32.90;48.40
22645;DHT22;11489;50.834;6.752;2023-06-24T13:38:16;32.80;48.90
22645;DHT22;11489;50.834;6.752;2023-06-24T13:40:42;32.70;48.20
22645;DHT22;11489;50.834;6.752;2023-06-24T13:43:08;32.60;48.60
22645;DHT22;11489;50.834;6.752;2023-06-24T13:45:34;32.60;48.80
22645;DHT22;11489;50.834;6.752;2023-06-24T13:47:59;32.60;49.10
22645;DHT22;11489;50.834;6.752;2023-06-24T13:50:25;32.60;48.70
22645;DHT22;11489;50.834;6.752;2023-06-24T13:52:51;32.60;49.00
22645;DHT22;11489;50.834;6.752;2023-06-24T13:55:16;32.60;47.80
22645;DHT22;11489;50.834;6.752;2023-06-24T13:57:42;32.60;48.40
22645;DHT22;11489;50.834;6.752;2023-06-24T14:00:08;32.60;48.40
22645;DHT22;11489;50.834;6.752;2023-06-24T14:02:34;32.60;48.00
22645;DHT22;11489;50.834;6.752;2023-06-24T14:05:00;32.60;48.30
22645;DHT22;11489;50.834;6.752;2023-06-24T14:07:26;32.80;49.00
22645;DHT22;11489;50.834;6.752;2023-06-24T14:09:51;32.90;48.40
22645;DHT22;11489;50.834;6.752;2023-06-24T14:12:17;33.10;48.30
22645;DHT22;11489;50.834;6.752;2023-06-24T14:14:43;33.30;48.30
22645;DHT22;11489;50.834;6.752;2023-06-24T14:17:09;33.40;48.00
22645;DHT22;11489;50.834;6.752;2023-06-24T14:19:40;33.50;47.90
22645;DHT22;11489;50.834;6.752;2023-06-24T14:22:07;33.60;48.20
22645;DHT22;11489;50.834;6.752;2023-06-24T14:24:33;33.70;46.90
22645;DHT22;11489;50.834;6.752;2023-06-24T14:26:59;33.80;46.60
22645;DHT22;11489;50.834;6.752;2023-06-24T14:29:24;33.80;46.70
22645;DHT22;11489;50.834;6.752;2023-06-24T14:31:51;33.80;46.40
22645;DHT22;11489;50.834;6.752;2023-06-24T14:34:17;33.80;46.10
22645;DHT22;11489;50.834;6.752;2023-06-24T14:36:43;33.70;44.90
22645;DHT22;11489;50.834;6.752;2023-06-24T14:39:09;33.60;45.60
22645;DHT22;11489;50.834;6.752;2023-06-24T14:41:34;33.60;45.80
22645;DHT22;11489;50.834;6.752;2023-06-24T14:44:00;33.50;45.20
22645;DHT22;11489;50.834;6.752;2023-06-24T14:46:26;33.40;43.80
22645;DHT22;11489;50.834;6.752;2023-06-24T14:48:51;33.30;44.60
22645;DHT22;11489;50.834;6.752;2023-06-24T14:51:17;33.30;45.20
22645;DHT22;11489;50.834;6.752;2023-06-24T14:53:43;33.40;45.60
22645;DHT22;11489;50.834;6.752;2023-06-24T14:56:08;33.50;45.10
22645;DHT22;11489;50.834;6.752;2023-06-24T14:58:34;33.60;44.90
22645;DHT22;11489;50.834;6.752;2023-06-24T15:01:00;33.60;45.00
22645;DHT22;11489;50.834;6.752;2023-06-24T15:03:25;33.70;45.20
22645;DHT22;11489;50.834;6.752;2023-06-24T15:05:51;33.80;45.40
22645;DHT22;11489;50.834;6.752;2023-06-24T15:08:16;34.00;44.50
22645;DHT22;11489;50.834;6.752;2023-06-24T15:10:42;34.00;43.80
22645;DHT22;11489;50.834;6.752;2023-06-24T15:13:08;34.00;43.70
22645;DHT22;11489;50.834;6.752;2023-06-24T15:15:34;34.00;43.90
22645;DHT22;11489;50.834;6.752;2023-06-24T15:18:00;34.00;43.50
22645;DHT22;11489;50.834;6.752;2023-06-24T15:20:25;34.00;44.30
22645;DHT22;11489;50.834;6.752;2023-06-24T15:22:51;33.90;43.60
22645;DHT22;11489;50.834;6.752;2023-06-24T15:25:17;34.00;43.60
22645;DHT22;11489;50.834;6.752;2023-06-24T15:27:42;34.00;43.60
22645;DHT22;11489;50.834;6.752;2023-06-24T15:30:08;34.00;43.20
22645;DHT22;11489;50.834;6.752;2023-06-24T15:32:34;34.00;43.10
22645;DHT22;11489;50.834;6.752;2023-06-24T15:35:03;34.00;43.10
22645;DHT22;11489;50.834;6.752;2023-06-24T15:37:29;33.90;42.20
22645;DHT22;11489;50.834;6.752;2023-06-24T15:39:55;33.90;42.80
22645;DHT22;11489;50.834;6.752;2023-06-24T15:42:21;33.80;42.80
22645;DHT22;11489;50.834;6.752;2023-06-24T15:44:46;33.70;43.00
22645;DHT22;11489;50.834;6.752;2023-06-24T15:47:12;33.60;42.60
22645;DHT22;11489;50.834;6.752;2023-06-24T15:49:38;33.50;42.40
22645;DHT22;11489;50.834;6.752;2023-06-24T15:52:03;33.50;42.60